sensor_id;sensor_type;location;lat;lon;timestamp;temperature;humidity
38237;DHT22;50101;49.438;11.098;2022-11-15T00:00:55;18.10;65.60
38237;DHT22;50101;49.438;11.098;2022-11-15T00:03:27;18.10;65.60
38237;DHT22;50101;49.438;11.098;2022-11-15T00:05:54;18.10;65.50
38237;DHT22;50101;49.438;11.098;2022-11-15T00:08:20;18.20;65.60
38237;DHT22;50101;49.438;11.098;2022-11-15T00:10:57;18.10;65.50
38237;DHT22;50101;49.438;11.098;2022-11-15T00:13:24;18.20;65.60
38237;DHT22;50101;49.438;11.098;2022-11-15T00:15:51;18.10;65.40
38237;DHT22;50101;49.438;11.098;2022-11-15T00:18:18;18.10;65.40
38237;DHT22;50101;49.438;11.098;2022-11-15T00:20:45;18.10;65.40
38237;DHT22;50101;49.438;11.098;2022-11-15T00:23:11;18.10;65.40
38237;DHT22;50101;49.438;11.098;2022-11-15T00:25:38;18.10;65.40
38237;DHT22;50101;49.438;11.098;2022-11-15T00:28:05;18.10;65.40
38237;DHT22;50101;49.438;11.098;2022-11-15T00:30:31;18.10;65.40
38237;DHT22;50101;49.438;11.098;2022-11-15T00:33:05;18.10;65.40
38237;DHT22;50101;49.438;11.098;2022-11-15T00:35:33;18.10;65.40
38237;DHT22;50101;49.438;11.098;2022-11-15T00:38:00;18.10;65.40
38237;DHT22;50101;49.438;11.098;2022-11-15T00:40:27;18.10;65.40
38237;DHT22;50101;49.438;11.098;2022-11-15T00:42:54;18.10;65.40
38237;DHT22;50101;49.438;11.098;2022-11-15T00:45:21;18.20;64.90
38237;DHT22;50101;49.438;11.098;2022-11-15T00:47:48;18.10;65.40
38237;DHT22;50101;49.438;11.098;2022-11-15T00:50:15;18.10;65.40
38237;DHT22;50101;49.438;11.098;2022-11-15T00:52:41;18.10;65.30
38237;DHT22;50101;49.438;11.098;2022-11-15T00:55:18;18.10;65.40
38237;DHT22;50101;49.438;11.098;2022-11-15T00:57:46;18.10;65.40
38237;DHT22;50101;49.438;11.098;2022-11-15T01:00:13;18.10;65.40
38237;DHT22;50101;49.438;11.098;2022-11-15T01:02:40;18.10;65.30
38237;DHT22;50101;49.438;11.098;2022-11-15T01:05:07;18.10;64.80
38237;DHT22;50101;49.438;11.098;2022-11-15T01:07:34;18.10;65.40
38237;DHT22;50101;49.438;11.098;2022-11-15T01:10:00;18.10;65.40
38237;DHT22;50101;49.438;11.098;2022-11-15T01:12:27;18.10;65.40
38237;DHT22;50101;49.438;11.098;2022-11-15T01:14:54;18.10;64.80
38237;DHT22;50101;49.438;11.098;2022-11-15T01:17:20;18.10;65.40
38237;DHT22;50101;49.438;11.098;2022-11-15T01:19:47;18.10;65.30
38237;DHT22;50101;49.438;11.098;2022-11-15T01:22:14;18.10;65.40
38237;DHT22;50101;49.438;11.098;2022-11-15T01:24:40;18.10;65.30
38237;DHT22;50101;49.438;11.098;2022-11-15T01:27:07;18.10;65.30
38237;DHT22;50101;49.438;11.098;2022-11-15T01:29:34;18.10;65.30
38237;DHT22;50101;49.438;11.098;2022-11-15T01:32:00;18.10;65.30
38237;DHT22;50101;49.438;11.098;2022-11-15T01:34:27;18.10;65.30
38237;DHT22;50101;49.438;11.098;2022-11-15T01:36:54;18.10;65.30
38237;DHT22;50101;49.438;11.098;2022-11-15T01:39:20;18.10;65.30
38237;DHT22;50101;49.438;11.098;2022-11-15T01:41:47;18.10;65.30
38237;DHT22;50101;49.438;11.098;2022-11-15T01:44:51;18.10;64.70
38237;DHT22;50101;49.438;11.098;2022-11-15T01:47:33;18.10;65.30
38237;DHT22;50101;49.438;11.098;2022-11-15T01:50:04;18.10;65.30
38237;DHT22;50101;49.438;11.098;2022-11-15T01:52:33;18.10;65.30
38237;DHT22;50101;49.438;11.098;2022-11-15T01:55:08;18.10;65.40
38237;DHT22;50101;49.438;11.098;2022-11-15T01:57:36;17.70;64.90
38237;DHT22;50101;49.438;11.098;2022-11-15T02:00:04;18.10;65.30
38237;DHT22;50101;49.438;11.098;2022-11-15T02:02:33;18.10;65.30
38237;DHT22;50101;49.438;11.098;2022-11-15T02:05:00;18.10;65.30
38237;DHT22;50101;49.438;11.098;2022-11-15T02:07:28;18.10;65.30
38237;DHT22;50101;49.438;11.098;2022-11-15T02:09:58;18.10;65.40
38237;DHT22;50101;49.438;11.098;2022-11-15T02:12:28;18.10;65.40
38237;DHT22;50101;49.438;11.098;2022-11-15T02:14:57;18.10;65.40
38237;DHT22;50101;49.438;11.098;2022-11-15T02:25:54;18.00;64.60
38237;DHT22;50101;49.438;11.098;2022-11-15T02:31:11;18.10;65.30
38237;DHT22;50101;49.438;11.098;2022-11-15T02:34:04;18.10;65.30
38237;DHT22;50101;49.438;11.098;2022-11-15T02:36:44;18.10;65.20
38237;DHT22;50101;49.438;11.098;2022-11-15T02:39:51;18.10;65.30
38237;DHT22;50101;49.438;11.098;2022-11-15T02:42:26;18.00;65.20
38237;DHT22;50101;49.438;11.098;2022-11-15T02:45:39;18.10;65.30
38237;DHT22;50101;49.438;11.098;2022-11-15T02:48:07;18.00;65.10
38237;DHT22;50101;49.438;11.098;2022-11-15T02:50:34;18.10;65.20
38237;DHT22;50101;49.438;11.098;2022-11-15T02:53:02;18.10;65.20
38237;DHT22;50101;49.438;11.098;2022-11-15T02:55:34;18.00;65.00
38237;DHT22;50101;49.438;11.098;2022-11-15T02:58:20;18.00;65.00
38237;DHT22;50101;49.438;11.098;2022-11-15T03:01:01;18.10;65.10
38237;DHT22;50101;49.438;11.098;2022-11-15T03:04:06;18.00;65.00
38237;DHT22;50101;49.438;11.098;2022-11-15T03:06:59;18.00;65.00
38237;DHT22;50101;49.438;11.098;2022-11-15T03:10:05;18.00;65.00
38237;DHT22;50101;49.438;11.098;2022-11-15T03:12:54;18.00;65.00
38237;DHT22;50101;49.438;11.098;2022-11-15T03:15:32;18.10;65.00
38237;DHT22;50101;49.438;11.098;2022-11-15T03:18:14;18.00;64.80
38237;DHT22;50101;49.438;11.098;2022-11-15T03:20:42;18.00;64.90
38237;DHT22;50101;49.438;11.098;2022-11-15T03:23:10;18.00;64.80
38237;DHT22;50101;49.438;11.098;2022-11-15T03:25:41;18.00;64.80
38237;DHT22;50101;49.438;11.098;2022-11-15T03:28:11;18.00;64.80
38237;DHT22;50101;49.438;11.098;2022-11-15T03:30:39;18.10;64.80
38237;DHT22;50101;49.438;11.098;2022-11-15T03:33:08;18.10;64.80
38237;DHT22;50101;49.438;11.098;2022-11-15T03:35:38;18.10;64.80
38237;DHT22;50101;49.438;11.098;2022-11-15T03:38:25;18.10;64.80
38237;DHT22;50101;49.438;11.098;2022-11-15T03:40:58;18.00;64.70
38237;DHT22;50101;49.438;11.098;2022-11-15T03:43:53;18.10;64.70
38237;DHT22;50101;49.438;11.098;2022-11-15T03:49:19;18.10;64.60
38237;DHT22;50101;49.438;11.098;2022-11-15T03:51:48;18.10;64.70
38237;DHT22;50101;49.438;11.098;2022-11-15T03:54:15;18.00;64.50
38237;DHT22;50101;49.438;11.098;2022-11-15T03:56:42;18.10;64.50
38237;DHT22;50101;49.438;11.098;2022-11-15T03:59:09;18.10;64.50
38237;DHT22;50101;49.438;11.098;2022-11-15T04:01:35;18.00;64.40
38237;DHT22;50101;49.438;11.098;2022-11-15T04:04:02;18.00;64.40
38237;DHT22;50101;49.438;11.098;2022-11-15T04:06:28;18.00;64.50
38237;DHT22;50101;49.438;11.098;2022-11-15T04:08:55;18.00;64.40
38237;DHT22;50101;49.438;11.098;2022-11-15T04:11:22;18.00;64.40
38237;DHT22;50101;49.438;11.098;2022-11-15T04:13:48;18.10;64.50
38237;DHT22;50101;49.438;11.098;2022-11-15T04:16:15;18.00;64.40
38237;DHT22;50101;49.438;11.098;2022-11-15T04:18:41;18.00;64.40
38237;DHT22;50101;49.438;11.098;2022-11-15T04:21:08;18.00;64.40
38237;DHT22;50101;49.438;11.098;2022-11-15T04:23:55;18.00;63.80
38237;DHT22;50101;49.438;11.098;2022-11-15T04:26:31;18.00;64.50
38237;DHT22;50101;49.438;11.098;2022-11-15T04:28:58;18.00;64.40
38237;DHT22;50101;49.438;11.098;2022-11-15T04:32:01;18.00;64.40
38237;DHT22;50101;49.438;11.098;2022-11-15T04:34:28;18.00;64.50
38237;DHT22;50101;49.438;11.098;2022-11-15T04:36:54;18.00;64.40
38237;DHT22;50101;49.438;11.098;2022-11-15T04:39:40;18.00;64.40
38237;DHT22;50101;49.438;11.098;2022-11-15T04:42:08;18.00;64.30
38237;DHT22;50101;49.438;11.098;2022-11-15T04:44:35;18.00;64.20
38237;DHT22;50101;49.438;11.098;2022-11-15T04:47:01;18.00;64.20
38237;DHT22;50101;49.438;11.098;2022-11-15T04:49:28;18.00;64.10
38237;DHT22;50101;49.438;11.098;2022-11-15T04:51:55;18.00;64.20
38237;DHT22;50101;49.438;11.098;2022-11-15T04:54:22;18.00;63.50
38237;DHT22;50101;49.438;11.098;2022-11-15T04:56:48;18.00;64.20
38237;DHT22;50101;49.438;11.098;2022-11-15T04:59:15;18.00;64.10
38237;DHT22;50101;49.438;11.098;2022-11-15T05:01:41;18.00;64.10
38237;DHT22;50101;49.438;11.098;2022-11-15T05:04:10;18.00;64.20
38237;DHT22;50101;49.438;11.098;2022-11-15T05:06:47;18.00;64.30
38237;DHT22;50101;49.438;11.098;2022-11-15T05:09:14;18.00;64.30
38237;DHT22;50101;49.438;11.098;2022-11-15T05:11:41;18.00;64.40
38237;DHT22;50101;49.438;11.098;2022-11-15T05:14:08;18.00;64.40
38237;DHT22;50101;49.438;11.098;2022-11-15T05:16:35;18.00;64.40
38237;DHT22;50101;49.438;11.098;2022-11-15T05:19:02;18.00;64.40
38237;DHT22;50101;49.438;11.098;2022-11-15T05:21:28;18.00;64.40
38237;DHT22;50101;49.438;11.098;2022-11-15T05:23:55;18.10;64.00
38237;DHT22;50101;49.438;11.098;2022-11-15T05:26:22;18.00;64.40
38237;DHT22;50101;49.438;11.098;2022-11-15T05:28:56;18.10;64.50
38237;DHT22;50101;49.438;11.098;2022-11-15T05:31:23;18.00;64.40
38237;DHT22;50101;49.438;11.098;2022-11-15T05:33:51;18.10;63.90
38237;DHT22;50101;49.438;11.098;2022-11-15T05:36:50;18.10;64.50
38237;DHT22;50101;49.438;11.098;2022-11-15T05:39:17;18.10;64.60
38237;DHT22;50101;49.438;11.098;2022-11-15T05:41:49;18.00;64.40
38237;DHT22;50101;49.438;11.098;2022-11-15T05:44:19;18.10;64.00
38237;DHT22;50101;49.438;11.098;2022-11-15T05:46:48;18.10;64.50
38237;DHT22;50101;49.438;11.098;2022-11-15T05:49:18;18.10;64.50
38237;DHT22;50101;49.438;11.098;2022-11-15T05:51:47;18.10;64.40
38237;DHT22;50101;49.438;11.098;2022-11-15T05:54:15;18.10;63.90
38237;DHT22;50101;49.438;11.098;2022-11-15T05:56:42;18.10;64.50
38237;DHT22;50101;49.438;11.098;2022-11-15T05:59:10;18.10;64.50
38237;DHT22;50101;49.438;11.098;2022-11-15T06:01:38;18.10;64.50
38237;DHT22;50101;49.438;11.098;2022-11-15T06:04:06;18.10;64.50
38237;DHT22;50101;49.438;11.098;2022-11-15T06:06:32;18.10;64.50
38237;DHT22;50101;49.438;11.098;2022-11-15T06:08:59;18.10;65.20
38237;DHT22;50101;49.438;11.098;2022-11-15T06:11:26;18.10;64.40
38237;DHT22;50101;49.438;11.098;2022-11-15T06:13:52;18.10;64.40
38237;DHT22;50101;49.438;11.098;2022-11-15T06:16:19;18.10;64.40
38237;DHT22;50101;49.438;11.098;2022-11-15T06:18:45;18.10;64.50
38237;DHT22;50101;49.438;11.098;2022-11-15T06:21:12;18.10;64.40
38237;DHT22;50101;49.438;11.098;2022-11-15T06:23:38;18.10;63.90
38237;DHT22;50101;49.438;11.098;2022-11-15T06:26:05;18.10;64.50
38237;DHT22;50101;49.438;11.098;2022-11-15T06:28:32;18.10;64.50
38237;DHT22;50101;49.438;11.098;2022-11-15T06:31:03;18.10;64.50
38237;DHT22;50101;49.438;11.098;2022-11-15T06:36:06;18.10;63.90
38237;DHT22;50101;49.438;11.098;2022-11-15T06:38:40;18.10;64.50
38237;DHT22;50101;49.438;11.098;2022-11-15T06:41:09;18.10;64.60
38237;DHT22;50101;49.438;11.098;2022-11-15T06:43:36;18.10;64.50
38237;DHT22;50101;49.438;11.098;2022-11-15T06:46:04;18.10;64.60
38237;DHT22;50101;49.438;11.098;2022-11-15T06:48:31;18.10;64.50
38237;DHT22;50101;49.438;11.098;2022-11-15T06:51:00;18.10;64.70
38237;DHT22;50101;49.438;11.098;2022-11-15T06:53:27;18.10;64.50
38237;DHT22;50101;49.438;11.098;2022-11-15T06:56:04;18.10;63.90
38237;DHT22;50101;49.438;11.098;2022-11-15T06:58:31;18.10;64.50
38237;DHT22;50101;49.438;11.098;2022-11-15T07:01:03;18.10;64.50
38237;DHT22;50101;49.438;11.098;2022-11-15T07:03:30;18.10;64.50
38237;DHT22;50101;49.438;11.098;2022-11-15T07:05:58;18.10;64.50
38237;DHT22;50101;49.438;11.098;2022-11-15T07:08:32;18.10;64.50
38237;DHT22;50101;49.438;11.098;2022-11-15T07:11:01;18.20;64.60
38237;DHT22;50101;49.438;11.098;2022-11-15T07:13:30;18.10;64.50
38237;DHT22;50101;49.438;11.098;2022-11-15T07:16:05;18.20;64.60
38237;DHT22;50101;49.438;11.098;2022-11-15T07:18:34;18.20;64.00
38237;DHT22;50101;49.438;11.098;2022-11-15T07:21:03;18.20;64.60
38237;DHT22;50101;49.438;11.098;2022-11-15T07:23:30;18.20;64.00
38237;DHT22;50101;49.438;11.098;2022-11-15T07:25:58;18.20;64.60
38237;DHT22;50101;49.438;11.098;2022-11-15T07:28:27;18.20;64.60
38237;DHT22;50101;49.438;11.098;2022-11-15T07:30:54;18.20;64.60
38237;DHT22;50101;49.438;11.098;2022-11-15T07:33:21;18.20;64.60
38237;DHT22;50101;49.438;11.098;2022-11-15T07:35:48;18.20;64.60
38237;DHT22;50101;49.438;11.098;2022-11-15T07:38:15;18.20;64.60
38237;DHT22;50101;49.438;11.098;2022-11-15T07:40:41;18.20;64.60
38237;DHT22;50101;49.438;11.098;2022-11-15T07:43:08;18.20;64.60
38237;DHT22;50101;49.438;11.098;2022-11-15T07:45:43;18.20;64.00
38237;DHT22;50101;49.438;11.098;2022-11-15T07:48:11;18.20;64.70
38237;DHT22;50101;49.438;11.098;2022-11-15T07:50:41;18.20;64.80
38237;DHT22;50101;49.438;11.098;2022-11-15T07:53:09;18.20;64.80
38237;DHT22;50101;49.438;11.098;2022-11-15T07:55:36;18.20;64.80
38237;DHT22;50101;49.438;11.098;2022-11-15T07:58:03;18.20;64.90
38237;DHT22;50101;49.438;11.098;2022-11-15T08:00:30;18.20;64.80
38237;DHT22;50101;49.438;11.098;2022-11-15T08:03:05;18.20;64.90
38237;DHT22;50101;49.438;11.098;2022-11-15T08:05:33;18.10;64.80
38237;DHT22;50101;49.438;11.098;2022-11-15T08:07:59;18.20;65.00
38237;DHT22;50101;49.438;11.098;2022-11-15T08:10:27;18.20;65.00
38237;DHT22;50101;49.438;11.098;2022-11-15T08:15:25;18.20;65.00
38237;DHT22;50101;49.438;11.098;2022-11-15T08:17:59;18.20;65.00
38237;DHT22;50101;49.438;11.098;2022-11-15T08:20:28;18.20;65.10
38237;DHT22;50101;49.438;11.098;2022-11-15T08:22:57;18.20;65.10
38237;DHT22;50101;49.438;11.098;2022-11-15T08:25:24;18.20;65.20
38237;DHT22;50101;49.438;11.098;2022-11-15T08:27:57;18.20;65.20
38237;DHT22;50101;49.438;11.098;2022-11-15T08:30:25;18.20;65.20
38237;DHT22;50101;49.438;11.098;2022-11-15T08:32:52;18.20;65.20
38237;DHT22;50101;49.438;11.098;2022-11-15T08:35:20;18.20;65.30
38237;DHT22;50101;49.438;11.098;2022-11-15T08:37:54;18.20;65.30
38237;DHT22;50101;49.438;11.098;2022-11-15T08:40:21;18.20;65.40
38237;DHT22;50101;49.438;11.098;2022-11-15T08:42:48;18.20;65.40
38237;DHT22;50101;49.438;11.098;2022-11-15T08:45:15;18.20;65.30
38237;DHT22;50101;49.438;11.098;2022-11-15T08:47:41;18.20;65.40
38237;DHT22;50101;49.438;11.098;2022-11-15T08:50:08;18.20;65.40
38237;DHT22;50101;49.438;11.098;2022-11-15T08:52:35;18.20;65.40
38237;DHT22;50101;49.438;11.098;2022-11-15T08:55:02;18.20;65.40
38237;DHT22;50101;49.438;11.098;2022-11-15T08:57:29;18.20;65.40
38237;DHT22;50101;49.438;11.098;2022-11-15T08:59:57;18.20;65.50
38237;DHT22;50101;49.438;11.098;2022-11-15T09:02:23;18.20;65.50
38237;DHT22;50101;49.438;11.098;2022-11-15T09:04:50;18.20;65.50
38237;DHT22;50101;49.438;11.098;2022-11-15T09:07:17;18.20;65.50
38237;DHT22;50101;49.438;11.098;2022-11-15T09:09:44;18.20;65.50
38237;DHT22;50101;49.438;11.098;2022-11-15T09:12:11;18.20;65.50
38237;DHT22;50101;49.438;11.098;2022-11-15T09:14:37;18.20;65.50
38237;DHT22;50101;49.438;11.098;2022-11-15T09:17:07;18.20;65.50
38237;DHT22;50101;49.438;11.098;2022-11-15T09:19:35;18.20;65.50
38237;DHT22;50101;49.438;11.098;2022-11-15T09:22:01;18.20;65.60
38237;DHT22;50101;49.438;11.098;2022-11-15T09:24:28;18.20;65.60
38237;DHT22;50101;49.438;11.098;2022-11-15T09:26:54;18.20;65.70
38237;DHT22;50101;49.438;11.098;2022-11-15T09:29:21;18.20;65.70
38237;DHT22;50101;49.438;11.098;2022-11-15T09:31:48;18.20;65.70
38237;DHT22;50101;49.438;11.098;2022-11-15T09:34:14;18.20;65.80
38237;DHT22;50101;49.438;11.098;2022-11-15T09:36:41;18.20;65.80
38237;DHT22;50101;49.438;11.098;2022-11-15T09:39:08;18.20;65.80
38237;DHT22;50101;49.438;11.098;2022-11-15T09:50:06;18.20;65.80
38237;DHT22;50101;49.438;11.098;2022-11-15T09:52:36;18.20;65.90
38237;DHT22;50101;49.438;11.098;2022-11-15T09:55:05;18.20;65.80
38237;DHT22;50101;49.438;11.098;2022-11-15T09:57:48;18.30;65.90
38237;DHT22;50101;49.438;11.098;2022-11-15T10:00:22;18.30;66.00
38237;DHT22;50101;49.438;11.098;2022-11-15T10:03:13;18.30;65.90
38237;DHT22;50101;49.438;11.098;2022-11-15T10:05:44;18.30;65.90
38237;DHT22;50101;49.438;11.098;2022-11-15T10:08:47;18.30;65.90
38237;DHT22;50101;49.438;11.098;2022-11-15T10:11:24;18.30;66.10
38237;DHT22;50101;49.438;11.098;2022-11-15T10:14:19;18.20;65.80
38237;DHT22;50101;49.438;11.098;2022-11-15T10:16:59;18.30;66.00
38237;DHT22;50101;49.438;11.098;2022-11-15T10:22:26;18.30;66.00
38237;DHT22;50101;49.438;11.098;2022-11-15T10:27:35;18.30;65.90
38237;DHT22;50101;49.438;11.098;2022-11-15T10:30:04;18.30;66.00
38237;DHT22;50101;49.438;11.098;2022-11-15T10:32:36;18.30;66.00
38237;DHT22;50101;49.438;11.098;2022-11-15T10:35:24;18.30;65.90
38237;DHT22;50101;49.438;11.098;2022-11-15T10:37:50;18.30;65.90
38237;DHT22;50101;49.438;11.098;2022-11-15T10:40:20;18.30;66.00
38237;DHT22;50101;49.438;11.098;2022-11-15T10:42:49;17.90;65.60
38237;DHT22;50101;49.438;11.098;2022-11-15T10:45:32;18.30;66.00
38237;DHT22;50101;49.438;11.098;2022-11-15T10:50:45;18.30;66.00
38237;DHT22;50101;49.438;11.098;2022-11-15T10:53:19;18.30;66.00
38237;DHT22;50101;49.438;11.098;2022-11-15T10:55:49;18.30;66.00
38237;DHT22;50101;49.438;11.098;2022-11-15T10:58:55;18.30;66.10
38237;DHT22;50101;49.438;11.098;2022-11-15T11:01:24;18.30;66.10
38237;DHT22;50101;49.438;11.098;2022-11-15T11:04:06;18.30;66.10
38237;DHT22;50101;49.438;11.098;2022-11-15T11:09:35;18.30;66.10
38237;DHT22;50101;49.438;11.098;2022-11-15T11:12:09;18.30;66.10
38237;DHT22;50101;49.438;11.098;2022-11-15T11:14:38;18.30;66.10
38237;DHT22;50101;49.438;11.098;2022-11-15T11:17:23;18.40;66.20
38237;DHT22;50101;49.438;11.098;2022-11-15T11:20:11;18.40;66.20
38237;DHT22;50101;49.438;11.098;2022-11-15T11:23:23;18.40;66.20
38237;DHT22;50101;49.438;11.098;2022-11-15T11:31:58;18.40;66.20
38237;DHT22;50101;49.438;11.098;2022-11-15T11:40:36;18.40;66.20
38237;DHT22;50101;49.438;11.098;2022-11-15T11:46:21;18.30;66.10
38237;DHT22;50101;49.438;11.098;2022-11-15T11:48:57;18.40;66.20
38237;DHT22;50101;49.438;11.098;2022-11-15T11:51:30;18.40;66.20
38237;DHT22;50101;49.438;11.098;2022-11-15T11:54:05;18.40;65.60
38237;DHT22;50101;49.438;11.098;2022-11-15T11:56:34;18.40;66.30
38237;DHT22;50101;49.438;11.098;2022-11-15T11:59:19;18.40;66.30
38237;DHT22;50101;49.438;11.098;2022-11-15T12:01:47;18.30;66.20
38237;DHT22;50101;49.438;11.098;2022-11-15T12:04:16;18.30;65.60
38237;DHT22;50101;49.438;11.098;2022-11-15T12:07:13;18.30;66.20
38237;DHT22;50101;49.438;11.098;2022-11-15T12:12:58;18.30;65.70
38237;DHT22;50101;49.438;11.098;2022-11-15T12:15:43;18.30;66.30
38237;DHT22;50101;49.438;11.098;2022-11-15T12:18:15;18.30;66.30
38237;DHT22;50101;49.438;11.098;2022-11-15T12:23:32;18.30;66.30
38237;DHT22;50101;49.438;11.098;2022-11-15T12:26:20;18.40;66.40
38237;DHT22;50101;49.438;11.098;2022-11-15T12:28:52;18.30;66.30
38237;DHT22;50101;49.438;11.098;2022-11-15T12:31:37;18.30;66.30
38237;DHT22;50101;49.438;11.098;2022-11-15T12:34:45;18.30;65.70
38237;DHT22;50101;49.438;11.098;2022-11-15T12:37:32;18.30;66.30
38237;DHT22;50101;49.438;11.098;2022-11-15T12:43:03;18.30;66.30
38237;DHT22;50101;49.438;11.098;2022-11-15T12:45:51;18.30;66.30
38237;DHT22;50101;49.438;11.098;2022-11-15T12:58:54;18.30;66.40
38237;DHT22;50101;49.438;11.098;2022-11-15T13:07:00;18.30;66.30
38237;DHT22;50101;49.438;11.098;2022-11-15T13:12:04;18.40;66.50
38237;DHT22;50101;49.438;11.098;2022-11-15T13:17:17;18.40;66.40
38237;DHT22;50101;49.438;11.098;2022-11-15T13:19:48;18.40;66.50
38237;DHT22;50101;49.438;11.098;2022-11-15T13:22:18;18.40;66.60
38237;DHT22;50101;49.438;11.098;2022-11-15T13:25:04;18.40;66.50
38237;DHT22;50101;49.438;11.098;2022-11-15T13:27:41;18.40;66.60
38237;DHT22;50101;49.438;11.098;2022-11-15T13:30:21;18.40;66.60
38237;DHT22;50101;49.438;11.098;2022-11-15T13:32:49;18.30;66.50
38237;DHT22;50101;49.438;11.098;2022-11-15T13:35:25;18.40;66.70
38237;DHT22;50101;49.438;11.098;2022-11-15T13:37:53;18.40;66.70
38237;DHT22;50101;49.438;11.098;2022-11-15T13:40:28;18.30;66.60
38237;DHT22;50101;49.438;11.098;2022-11-15T13:42:57;18.40;66.70
38237;DHT22;50101;49.438;11.098;2022-11-15T13:45:26;18.40;66.10
38237;DHT22;50101;49.438;11.098;2022-11-15T13:47:55;18.40;66.70
38237;DHT22;50101;49.438;11.098;2022-11-15T13:50:30;18.40;66.70
38237;DHT22;50101;49.438;11.098;2022-11-15T13:53:02;18.40;66.70
38237;DHT22;50101;49.438;11.098;2022-11-15T13:55:32;18.30;66.00
38237;DHT22;50101;49.438;11.098;2022-11-15T13:58:04;18.40;66.70
38237;DHT22;50101;49.438;11.098;2022-11-15T14:00:41;18.40;66.70
38237;DHT22;50101;49.438;11.098;2022-11-15T14:03:21;18.40;66.80
38237;DHT22;50101;49.438;11.098;2022-11-15T14:08:36;18.30;66.70
38237;DHT22;50101;49.438;11.098;2022-11-15T14:11:14;18.40;66.70
38237;DHT22;50101;49.438;11.098;2022-11-15T14:13:41;18.40;66.10
38237;DHT22;50101;49.438;11.098;2022-11-15T14:16:20;18.40;66.70
38237;DHT22;50101;49.438;11.098;2022-11-15T14:18:49;18.40;66.70
38237;DHT22;50101;49.438;11.098;2022-11-15T14:21:17;18.30;66.60
38237;DHT22;50101;49.438;11.098;2022-11-15T14:23:45;18.40;66.70
38237;DHT22;50101;49.438;11.098;2022-11-15T14:26:33;18.40;66.70
38237;DHT22;50101;49.438;11.098;2022-11-15T14:29:25;18.40;66.70
38237;DHT22;50101;49.438;11.098;2022-11-15T14:32:39;18.40;66.70
38237;DHT22;50101;49.438;11.098;2022-11-15T14:35:16;18.40;66.70
38237;DHT22;50101;49.438;11.098;2022-11-15T14:37:43;18.40;66.70
38237;DHT22;50101;49.438;11.098;2022-11-15T14:40:14;18.40;66.70
38237;DHT22;50101;49.438;11.098;2022-11-15T14:42:42;18.40;66.70
38237;DHT22;50101;49.438;11.098;2022-11-15T14:45:17;18.40;66.70
38237;DHT22;50101;49.438;11.098;2022-11-15T14:47:44;18.30;66.60
38237;DHT22;50101;49.438;11.098;2022-11-15T14:50:13;18.40;66.70
38237;DHT22;50101;49.438;11.098;2022-11-15T14:52:39;18.40;66.70
38237;DHT22;50101;49.438;11.098;2022-11-15T14:55:19;18.40;66.70
38237;DHT22;50101;49.438;11.098;2022-11-15T14:57:47;18.40;66.70
38237;DHT22;50101;49.438;11.098;2022-11-15T15:00:14;18.40;66.70
38237;DHT22;50101;49.438;11.098;2022-11-15T15:02:43;18.40;66.10
38237;DHT22;50101;49.438;11.098;2022-11-15T15:07:43;18.40;66.70
38237;DHT22;50101;49.438;11.098;2022-11-15T15:10:11;18.40;66.70
38237;DHT22;50101;49.438;11.098;2022-11-15T15:12:58;18.40;66.70
38237;DHT22;50101;49.438;11.098;2022-11-15T15:15:31;18.40;66.10
38237;DHT22;50101;49.438;11.098;2022-11-15T15:17:58;18.30;66.60
38237;DHT22;50101;49.438;11.098;2022-11-15T15:20:25;18.40;67.40
38237;DHT22;50101;49.438;11.098;2022-11-15T15:22:51;18.30;66.60
38237;DHT22;50101;49.438;11.098;2022-11-15T15:25:33;18.40;66.70
38237;DHT22;50101;49.438;11.098;2022-11-15T15:28:01;18.30;66.60
38237;DHT22;50101;49.438;11.098;2022-11-15T15:30:30;18.40;66.70
38237;DHT22;50101;49.438;11.098;2022-11-15T15:32:56;18.40;66.70
38237;DHT22;50101;49.438;11.098;2022-11-15T15:35:23;18.30;66.20
38237;DHT22;50101;49.438;11.098;2022-11-15T15:37:54;18.30;66.80
38237;DHT22;50101;49.438;11.098;2022-11-15T15:40:22;18.30;66.80
38237;DHT22;50101;49.438;11.098;2022-11-15T15:42:49;18.30;66.70
38237;DHT22;50101;49.438;11.098;2022-11-15T15:45:17;18.30;66.80
38237;DHT22;50101;49.438;11.098;2022-11-15T15:47:46;18.30;66.70
38237;DHT22;50101;49.438;11.098;2022-11-15T15:50:24;18.30;66.80
38237;DHT22;50101;49.438;11.098;2022-11-15T15:52:59;18.30;66.80
38237;DHT22;50101;49.438;11.098;2022-11-15T15:55:27;18.30;66.20
38237;DHT22;50101;49.438;11.098;2022-11-15T15:57:55;18.30;66.80
38237;DHT22;50101;49.438;11.098;2022-11-15T16:00:24;18.30;66.80
38237;DHT22;50101;49.438;11.098;2022-11-15T16:02:52;18.30;66.70
38237;DHT22;50101;49.438;11.098;2022-11-15T16:05:19;18.30;66.20
38237;DHT22;50101;49.438;11.098;2022-11-15T16:07:46;18.30;66.80
38237;DHT22;50101;49.438;11.098;2022-11-15T16:12:47;18.30;66.30
38237;DHT22;50101;49.438;11.098;2022-11-15T16:15:14;18.30;66.90
38237;DHT22;50101;49.438;11.098;2022-11-15T16:17:45;18.40;67.00
38237;DHT22;50101;49.438;11.098;2022-11-15T16:22:54;18.30;66.90
38237;DHT22;50101;49.438;11.098;2022-11-15T16:25:21;18.30;66.30
38237;DHT22;50101;49.438;11.098;2022-11-15T16:27:48;18.30;67.00
38237;DHT22;50101;49.438;11.098;2022-11-15T16:30:18;18.30;67.00
38237;DHT22;50101;49.438;11.098;2022-11-15T16:32:46;18.30;67.00
38237;DHT22;50101;49.438;11.098;2022-11-15T16:35:14;18.30;67.00
38237;DHT22;50101;49.438;11.098;2022-11-15T16:37:42;18.30;66.90
38237;DHT22;50101;49.438;11.098;2022-11-15T16:40:26;18.30;66.80
38237;DHT22;50101;49.438;11.098;2022-11-15T16:42:54;18.30;66.80
38237;DHT22;50101;49.438;11.098;2022-11-15T16:45:22;18.30;66.80
38237;DHT22;50101;49.438;11.098;2022-11-15T16:47:49;18.40;66.70
38237;DHT22;50101;49.438;11.098;2022-11-15T16:50:24;18.30;66.70
38237;DHT22;50101;49.438;11.098;2022-11-15T16:52:56;18.30;66.60
38237;DHT22;50101;49.438;11.098;2022-11-15T16:55:25;18.30;66.60
38237;DHT22;50101;49.438;11.098;2022-11-15T16:57:54;18.30;66.60
38237;DHT22;50101;49.438;11.098;2022-11-15T17:00:21;18.30;66.60
38237;DHT22;50101;49.438;11.098;2022-11-15T17:02:49;18.30;66.60
38237;DHT22;50101;49.438;11.098;2022-11-15T17:05:18;18.30;66.60
38237;DHT22;50101;49.438;11.098;2022-11-15T17:07:48;18.30;66.60
38237;DHT22;50101;49.438;11.098;2022-11-15T17:10:16;18.30;66.60
38237;DHT22;50101;49.438;11.098;2022-11-15T17:12:43;18.30;66.60
38237;DHT22;50101;49.438;11.098;2022-11-15T17:15:11;18.30;66.60
38237;DHT22;50101;49.438;11.098;2022-11-15T17:17:39;18.30;66.60